San Mateo, Florida
Current Conditions -  °F | °C
As of 6:15 AM on Sunday 21 Dec 2014 (Local Time) from K28J Reporting Station
Haze Haze  
Wind Chill: 59°   Ceiling: 300
Heat Index: 59°   Visibility: 3mi
Dew Point: 59°   Wind: 6mph
Humidity: 100%   Direction: 90°E
Pressure: 30.09"   Gusts: NA
Location:  29.59°N, 81.6°W
Report Text: K28J 211115Z AUTO 09005KT 3SM BR OVC003 15/15 A3009 RMK AO2
Loading
Personal Weather Stations






























Interactive Weather Map New forecast layout! Learn more

10-Day Weather Forecast

Advertisements
Track Severe Weather on mobile